Tiempo atmosférico en la estación meteorológica de Burgo de Osma, Soria (932 m.)



Fecha
DESCASC
Temp. máxima en grados centígrados (hora)
DESCASC
Temp. mínima en grados centígrados (hora)
DESCASC
Temp. media en grados centígrados
DESCASC
Racha de viento máxima en m/sg (hora)
DESCASC
Velocidad máxima media en intervalos de 10 minutos(hora)
DESCASC
Precipitaciones diarias en mm
DESCASC
Precipitaciones de 00:00 a 06:00 en mm
DESCASC
Precipitaciones de 06:00 a 12:00 en mm
DESCASC
Precipitaciones de 12:00 a 18:00 en mm
DESCASC
Precipitaciones de 18:00 a 24:00 en mm
DESCASC
22-04-2019 16.1 (17:20) 6.1 (06:10) 11.1 6.67 (19:50) 3.89 (20:00) 1.6 1.6 0 0 0
21-04-2019 10.5 (14:00) 6.1 (04:40) 8.3 8.89 (14:10) 6.39 (14:10) 0 0 0 0 0
20-04-2019 17.8 (16:10) 7.4 (04:00) 12.6 15.83 (12:20) 11.11 (11:40) 0 0 0 0 0
19-04-2019 12.9 (16:50) 6.7 (02:00) 9.8 17.22 (19:10) 11.39 (17:50) 6 5 0.2 0.8 0
18-04-2019 13.6 (02:40) 6.6 (00:00) 10.1 13.06 (03:30) 7.78 (03:30) 44.6 1.2 22.4 12.8 8.2
17-04-2019 21.1 (17:00) 7.9 (00:00) 14.5 11.39 (13:40) 8.33 (11:50) 0 0 0 0 0
16-04-2019 19 (18:30) 3.4 (00:00) 11.2 10 (16:00) 5.83 (19:20) 0 0 0 0 0
15-04-2019 22.3 (16:20) 5.3 (00:00) 13.8 16.94 (18:40) 10 (18:40) 6.2 0 0 0 6.2
14-04-2019 18.8 (17:40) 2.4 (00:00) 10.6 8.33 (15:00) 6.11 (15:00) 0 0 0 0 0
13-04-2019 18.9 (17:40) -5.6 (-00:0) 6.6 9.44 (17:50) 5.56 (18:40) 0 0 0 0 0
12-04-2019 15.2 (17:40) -3.3 (-00:0) 5.9 12.5 (15:30) 8.61 (19:10) 0 0 0 0 0
11-04-2019 11.5 (18:50) -0.6 (-00:0) 5.4 12.78 (14:40) 7.78 (14:50) 0 0 0 0 0
10-04-2019 11.5 (19:10) 3.1 (00:00) 7.3 11.11 (09:50) 7.22 (09:50) 1.2 1 0.2 0 0
09-04-2019 9.1 (13:20) 1.9 (00:00) 5.5 15 (16:50) 8.89 (16:50) 6.6 0 0 6.2 0.4
08-04-2019 13.1 (18:00) 4.2 (00:00) 8.7 13.89 (18:40) 9.72 (14:20) 5.4 2.8 2.4 0.2 0
07-04-2019 10.4 (17:00) 2 (00:00) 6.2 12.78 (02:00) 8.61 (02:00) 1 0 0 0 1
06-04-2019 7.1 (13:40) 1.1 (00:00) 4.1 19.44 (17:00) 12.5 (17:50) 7.2 0.4 0.6 3.2 3
05-04-2019 8.6 (12:10) 0.1 (00:00) 4.4 13.89 (15:20) 10 (15:20) 4.6 0 0.8 3.4 0.4
04-04-2019 11.9 (17:40) -4.8 (-00:0) 3.5 11.11 (15:20) 7.22 (19:00) 0 0 0 0 0
03-04-2019 9.7 (15:20) -0.9 (23:59) 4.4 14.44 (18:20) 10 (18:30) 0 0 0 0 0
02-04-2019 15.3 (16:30) 0.6 (00:00) 8 13.89 (18:10) 9.17 (14:30) 2.4 0 0 2.2 0.2
01-04-2019 16.8 (16:30) 5 (00:00) 10.9 6.11 (00:10) 4.44 (00:10) 0 0 0 0 0
31-03-2019 14.3 (13:20) 1.7 (00:00) 8 12.22 (13:50) 8.89 (13:50) 1 0 0 0 1
30-03-2019 17.7 (16:00) 0.9 (00:00) 9.3 10 (13:30) 6.11 (11:40) 0 0 0 0 0
29-03-2019 17.5 (16:10) 1.7 (00:00) 9.6 10.56 (15:20) 6.39 (12:40) 0 0 0 0 0
28-03-2019 19.5 (17:00) -4.3 (-00:0) 7.6 8.06 (10:50) 5.83 (10:20) 0 0 0 0 0
27-03-2019 19.3 (15:20) -6.3 (-00:0) 6.5 12.22 (18:00) 8.89 (18:00) 0 0 0 0 0
26-03-2019 17.7 (16:30) -5.4 (-00:0) 6.2 13.33 (15:50) 8.06 (14:40) 0 0 0 0 0
25-03-2019 19.3 (16:50) -2.1 (-00:0) 8.6 10 (17:10) 7.22 (17:10) 0 0 0 0 0

Gráficas

Temp. máximas Temp. mínimas Temp. medias Precipitaciones Rachas de viento máximas Velocidades máximas media en intervalos de 10 minutos

Datos horarios

Fecha y hora oficial Temperatura (ºC) Velocidad del viento (km/h) Dirección del viento Racha (km/h) Dirección de racha Precipitación (mm) Presión (hPa) Tendencia (hPa) Humedad (%)
2019-04-23 23:00:00 4.1 16 Oeste 23 Oeste 0.2 -- -- 88
2019-04-23 22:00:00 4.2 14 Oeste 28 Oeste 0 -- -- 87
2019-04-23 21:00:00 4.2 20 Oeste 46 Oeste 0 -- -- 87
2019-04-23 20:00:00 5.3 29 Oeste 49 Sudoeste 0 -- -- 83
2019-04-23 19:00:00 3.9 26 Noroeste 50 Oeste 1.8 -- -- 89
2019-04-23 18:00:00 10.3 3 Noroeste 21 Oeste 0 -- -- 66
2019-04-23 17:00:00 7.2 16 Oeste 32 Oeste 2.4 -- -- 88
2019-04-23 16:00:00 7.1 15 Noroeste 32 Oeste 1.2 -- -- 87
2019-04-23 15:00:00 7.9 12 Oeste 22 Oeste 0.6 -- -- 87
2019-04-23 14:00:00 7.4 12 Noroeste 32 Oeste 0.8 -- -- 89
2019-04-23 13:00:00 8.2 17 Noroeste 21 Oeste 0 -- -- 88
2019-04-23 12:00:00 8.9 9 Oeste 26 Sur 0.6 -- -- 87
2019-04-23 11:00:00 9.9 17 Sur 25 Sudeste 0 -- -- 73
2019-04-23 10:00:00 10 12 Sur 23 Sur 0 -- -- 72
2019-04-23 09:00:00 9.5 11 Sudeste 21 Sur 0 -- -- 72
2019-04-23 08:00:00 7.7 4 Sudeste 9 Este 0 -- -- 92
2019-04-23 07:00:00 7.4 3 Este 5 Nordeste 0 -- -- 94
2019-04-23 06:00:00 7.4 0 Calma 4 Sudeste 0 -- -- 93
2019-04-23 05:00:00 8 0 Calma 5 Nordeste 0.2 -- -- 90
2019-04-23 04:00:00 7.3 3 Nordeste 7 Nordeste 0 -- -- 91
2019-04-23 03:00:00 7.6 2 Este 4 Nordeste 0 -- -- 89
2019-04-23 02:00:00 7.8 3 Nordeste 7 Este 0 -- -- 87
2019-04-23 01:00:00 7.3 3 Nordeste 6 Este 0 -- -- 88
2019-04-23 00:00:00 7.9 2 Nordeste 6 Este 0 -- -- 85
2019-04-22 23:00:00 9.5 5 Este 15 Sudeste 0 -- -- 78
2019-04-22 22:00:00 10.5 9 Sudeste 18 Sudeste 0 -- -- 73
2019-04-22 21:00:00 10.6 9 Sudeste 21 Sur 0 -- -- 76
2019-04-22 20:00:00 11.2 14 Sur 24 Sur 0 -- -- 73
2019-04-22 19:00:00 12.8 13 Sur 21 Sur 0 -- -- 61
2019-04-22 18:00:00 14.1 9 Sudeste 15 Sudeste 0 -- -- 56
2019-04-22 17:00:00 15.1 4 Sudoeste 14 Sudoeste 0 -- -- 55
2019-04-22 16:00:00 14.1 10 Sudoeste 18 Sudoeste 0 -- -- 56
2019-04-22 15:00:00 14.2 7 Oeste 17 Sudoeste 0 -- -- 54
2019-04-22 14:00:00 13.5 6 Sudoeste 22 Oeste 0 -- -- 57
2019-04-22 13:00:00 13.4 10 Oeste 18 Noroeste 0 -- -- 57
2019-04-22 12:00:00 13 6 Sudoeste 14 Sudoeste 0 -- -- 59
2019-04-22 11:00:00 10.8 3 Noroeste 6 Sudoeste 0 -- -- 71
2019-04-22 10:00:00 8.9 3 Noroeste 6 Oeste 0 -- -- 80
2019-04-22 09:00:00 7.3 0 Calma 6 Noroeste 0 -- -- 91
2019-04-22 08:00:00 6.3 3 Oeste 7 Oeste 0 -- -- 94
2019-04-22 07:00:00 6.1 5 Oeste 10 Oeste 0 -- -- 95
2019-04-22 06:00:00 6.2 7 Oeste 9 Oeste 0 -- -- 95
2019-04-22 05:00:00 6.2 5 Oeste 6 Oeste 0 -- -- 94
2019-04-22 04:00:00 6.3 2 Sudoeste 4 Sudoeste 0.2 -- -- 94
2019-04-22 03:00:00 6.3 3 Sudeste 8 Este 1.4 -- -- 92
2019-04-22 02:00:00 6.7 5 Sudeste 8 Sudeste 0 -- -- 90
2019-04-22 01:00:00 6.8 5 Este 13 Este 0 -- -- 89
2019-04-22 00:00:00 7.2 12 Este 25 Este 0 -- -- 84
2019-04-21 23:00:00 8 10 Este 15 Este 0 -- -- 74
2019-04-21 22:00:00 8.3 9 Este 17 Este 0 -- -- 71
2019-04-21 21:00:00 8.6 10 Este 19 Este 0 -- -- 68
2019-04-21 20:00:00 9.1 14 Este 23 Este 0 -- -- 67
2019-04-21 19:00:00 9.5 15 Este 25 Este 0 -- -- 67
2019-04-21 18:00:00 10 15 Este 30 Este 0 -- -- 66
2019-04-21 17:00:00 9.7 20 Este 31 Este 0 -- -- 69
2019-04-21 16:00:00 9.1 15 Este 26 Este 0 -- -- 73
2019-04-21 15:00:00 9.3 14 Este 32 Este 0 -- -- 68
2019-04-21 14:00:00 10.5 16 Este 27 Este 0 -- -- 62
2019-04-21 13:00:00 9.5 15 Este 26 Este 0 -- -- 67
2019-04-21 12:00:00 9.4 17 Este 28 Este 0 -- -- 69
2019-04-21 11:00:00 8.6 15 Este 23 Este 0 -- -- 72
2019-04-21 10:00:00 7.9 12 Nordeste 18 Este 0 -- -- 77
2019-04-21 09:00:00 6.9 7 Este 18 Este 0 -- -- 83
2019-04-21 08:00:00 6.3 17 Este 27 Este 0 -- -- 83
2019-04-21 07:00:00 6.4 8 Este 20 Este 0 -- -- 85
2019-04-21 06:00:00 6.4 8 Este 16 Sudeste 0 -- -- 83
2019-04-21 05:00:00 6.3 10 Este 19 Sudeste 0 -- -- 83
2019-04-21 04:00:00 6.6 10 Este 19 Este 0 -- -- 83
2019-04-21 03:00:00 6.8 11 Este 22 Este 0 -- -- 79
2019-04-21 02:00:00 7.5 17 Este 26 Este 0 -- -- 76
2019-04-21 01:00:00 7.3 13 Este 20 Sudeste 0 -- -- 77
2019-04-21 00:00:00 7.6 10 Este 20 Este 0 -- -- 74
2019-04-20 23:00:00 9.2 13 Este 32 Este 0 -- -- 64
2019-04-20 22:00:00 11.1 14 Este 25 Este 0 -- -- 55
2019-04-20 21:00:00 12.6 13 Este 35 Este 0 -- -- 49
2019-04-20 20:00:00 15.4 26 Este 42 Este 0 -- -- 38
2019-04-20 19:00:00 16.9 29 Este 41 Este 0 -- -- 39
2019-04-20 18:00:00 17.5 27 Este 47 Este 0 -- -- 39
2019-04-20 17:00:00 17.6 32 Este 48 Este 0 -- -- 40
2019-04-20 16:00:00 17.6 30 Este 53 Este 0 -- -- 41
2019-04-20 15:00:00 17.4 31 Este 46 Este 0 -- -- 44
2019-04-20 14:00:00 16.7 30 Este 50 Este 0 -- -- 40
2019-04-20 13:00:00 15.9 37 Este 57 Sudeste 0 -- -- 41
2019-04-20 12:00:00 15.3 37 Este 55 Este 0 -- -- 42
2019-04-20 11:00:00 14 33 Este 54 Este 0 -- -- 45
2019-04-20 10:00:00 12.4 32 Este 51 Este 0 -- -- 54
2019-04-20 09:00:00 11.3 17 Este 26 Este 0 -- -- 56
2019-04-20 08:00:00 9.1 7 Este 22 Nordeste 0 -- -- 62
2019-04-20 07:00:00 9 17 Este 26 Este 0 -- -- 65
2019-04-20 06:00:00 9 14 Este 21 Este 0 -- -- 68
2019-04-20 05:00:00 8.3 11 Este 17 Este 0 -- -- 75
2019-04-20 04:00:00 7.4 9 Este 16 Sudeste 0 -- -- 79
2019-04-20 03:00:00 8.7 11 Sudeste 32 Este 0 -- -- 72
2019-04-20 02:00:00 9.7 22 Este 31 Este 0 -- -- 69
2019-04-20 01:00:00 10 19 Este 43 Este 0 -- -- 68
2019-04-20 00:00:00 10.6 28 Este 43 Este 0 -- -- 66
2019-04-19 23:00:00 10.7 22 Este 40 Este 0 -- -- 69
2019-04-19 22:00:00 11.2 28 Este 50 Este 0 -- -- 67
2019-04-19 21:00:00 11.6 29 Este 53 Este 0 -- -- 70
2019-04-19 20:00:00 12.3 39 Este 62 Este 0 -- -- 66
2019-04-19 19:00:00 12.5 36 Este 53 Este 0 -- -- 67
2019-04-19 18:00:00 12.6 36 Este 58 Este 0 -- -- 68
2019-04-19 17:00:00 12.7 39 Este 59 Este 0 -- -- 69
2019-04-19 16:00:00 11.9 35 Este 56 Este 0 -- -- 76
2019-04-19 15:00:00 9.5 23 Este 46 Este 0 -- -- 87
2019-04-19 14:00:00 8.3 23 Este 37 Este 0.4 -- -- 95
2019-04-19 13:00:00 8.4 12 Este 21 Este 0.4 -- -- 94
2019-04-19 12:00:00 8.7 15 Este 28 Este 0.2 -- -- 90
2019-04-19 11:00:00 8.4 21 Este 39 Este 0 -- -- 90
2019-04-19 10:00:00 8.5 28 Este 42 Este 0 -- -- 91
2019-04-19 09:00:00 8 27 Este 40 Este 0 -- -- 91
2019-04-19 08:00:00 7.9 22 Este 35 Sudeste 0 -- -- 92
2019-04-19 07:00:00 7.5 19 Este 30 Este 0 -- -- 93
2019-04-19 06:00:00 7.1 20 Este 30 Este 0 -- -- 93
2019-04-19 05:00:00 6.9 13 Este 37 Este 0.2 -- -- 94
2019-04-19 04:00:00 6.9 24 Este 39 Este 0 -- -- 94
2019-04-19 03:00:00 6.8 27 Este 40 Este 1 -- -- 95
2019-04-19 02:00:00 6.7 25 Este 35 Este 2.6 -- -- 94
2019-04-19 01:00:00 7.3 23 Este 42 Este 1.2 -- -- 94
2019-04-19 00:00:00 7.7 13 Este 21 Sudeste 0.6 -- -- 96
2019-04-18 23:00:00 7.5 8 Este 15 Este 1.8 -- -- 96
2019-04-18 22:00:00 7.6 8 Este 12 Este 2.4 -- -- 95
2019-04-18 21:00:00 7.6 8 Este 18 Este 1.6 -- -- 94
2019-04-18 20:00:00 7.9 12 Este 19 Este 1 -- -- 93
2019-04-18 19:00:00 8.2 12 Este 16 Este 0.8 -- -- 93
2019-04-18 18:00:00 8 9 Este 13 Este 1.8 -- -- 93
2019-04-18 17:00:00 7.7 6 Nordeste 8 Nordeste 2 -- -- 93
2019-04-18 16:00:00 7.8 3 Este 7 Oeste 0.6 -- -- 90
2019-04-18 15:00:00 7.3 2 Noroeste 9 Oeste 2.6 -- -- 91
2019-04-18 14:00:00 6.8 5 Oeste 10 Oeste 3.8 -- -- 93
2019-04-18 13:00:00 7.1 5 Oeste 12 Nordeste 2 -- -- 91
2019-04-18 12:00:00 6.9 4 Nordeste 12 Nordeste 3 -- -- 93
2019-04-18 11:00:00 7.2 8 Nordeste 15 Nordeste 4.4 -- -- 94
2019-04-18 10:00:00 7.3 13 Nordeste 16 Nordeste 3.2 -- -- 95
2019-04-18 09:00:00 7.6 6 Nordeste 14 Noroeste 4.2 -- -- 95
2019-04-18 08:00:00 8 9 Norte 19 Noroeste 2.8 -- -- 94
2019-04-18 07:00:00 8.3 17 Noroeste 25 Noroeste 4.8 -- -- 92
2019-04-18 06:00:00 10.2 13 Sudeste 29 Este 0.8 -- -- 89
2019-04-18 05:00:00 10.9 8 Sur 44 Sudeste 0.4 -- -- 82
2019-04-18 04:00:00 11.2 24 Sudeste 47 Sur 0 -- -- 77
2019-04-18 03:00:00 13.5 22 Sur 36 Sur 0 -- -- 65
2019-04-18 02:00:00 12.3 13 Sudeste 22 Sur 0 -- -- 73
2019-04-18 01:00:00 11.9 5 Este 10 Nordeste 0 -- -- 78
2019-04-18 00:00:00 12.7 4 Noroeste 20 Oeste 0 -- -- 75
2019-04-17 23:00:00 13.7 14 Oeste 21 Oeste 0 -- -- 65
2019-04-17 22:00:00 15.6 2 Oeste 22 Sur 0 -- -- 59
2019-04-17 21:00:00 16.9 16 Sudeste 29 Este 0 -- -- 55
2019-04-17 20:00:00 16.5 15 Este 24 Este 0 -- -- 56
2019-04-17 19:00:00 19.7 7 Este 27 Este 0 -- -- 40
2019-04-17 18:00:00 20.7 22 Sudeste 38 Sudeste 0 -- -- 33
2019-04-17 17:00:00 21.1 17 Este 36 Este 0 -- -- 35
2019-04-17 16:00:00 17.8 16 Este 32 Este 0 -- -- 46
2019-04-17 15:00:00 16.5 22 Este 40 Sudeste 0 -- -- 48
2019-04-17 14:00:00 15.8 25 Sudeste 41 Sudeste 0 -- -- 48
2019-04-17 13:00:00 14.6 25 Sudeste 38 Este 0 -- -- 58
2019-04-17 12:00:00 12.6 26 Este 39 Este 0 -- -- 65
2019-04-17 11:00:00 10.9 27 Este 38 Este 0 -- -- 72
2019-04-17 10:00:00 10.2 27 Este 40 Este 0 -- -- 74
2019-04-17 09:00:00 8.7 22 Este 31 Este 0 -- -- 80
2019-04-17 08:00:00 8.3 19 Este 30 Este 0 -- -- 82
2019-04-17 07:00:00 8 17 Este 30 Sudeste 0 -- -- 82
2019-04-17 06:00:00 9.3 19 Este 30 Este 0 -- -- 76
2019-04-17 05:00:00 9.6 21 Este 33 Este 0 -- -- 76
2019-04-17 04:00:00 9.1 19 Este 31 Este 0 -- -- 75
2019-04-17 03:00:00 8.9 14 Este 22 Este 0 -- -- 73
2019-04-17 02:00:00 9.3 15 Este 23 Este 0 -- -- 70
2019-04-17 01:00:00 9 8 Este 17 Este 0 -- -- 70
2019-04-17 00:00:00 10.5 10 Este 24 Este 0 -- -- 64
2019-04-16 23:00:00 10.9 14 Este 19 Este 0 -- -- 60
2019-04-16 22:00:00 13.2 8 Sudeste 19 Sudeste 0 -- -- 49
2019-04-16 21:00:00 14.8 10 Sudeste 28 Sudeste 0 -- -- 43
2019-04-16 20:00:00 17.3 18 Sudeste 31 Sudeste 0 -- -- 36
2019-04-16 19:00:00 18.5 18 Sudeste 29 Sudeste 0 -- -- 32
2019-04-16 18:00:00 18.6 15 Sudeste 33 Este 0 -- -- 32
2019-04-16 17:00:00 18.5 19 Sudeste 30 Sudeste 0 -- -- 33
2019-04-16 16:00:00 18.1 21 Este 36 Este 0 -- -- 36
2019-04-16 15:00:00 16.9 16 Este 32 Este 0 -- -- 41
2019-04-16 14:00:00 16 8 Sudeste 22 Este 0 -- -- 45
2019-04-16 13:00:00 14.4 8 Nordeste 14 Nordeste 0 -- -- 53
2019-04-16 12:00:00 12.4 7 Este 13 Nordeste 0 -- -- 64
2019-04-16 11:00:00 10.1 7 Este 12 Este 0 -- -- 75
2019-04-16 10:00:00 7.5 5 Noroeste 12 Noroeste 0 -- -- 89
2019-04-16 09:00:00 6.1 0 Calma 4 Este 0 -- -- 95
2019-04-16 08:00:00 4.5 2 Noroeste 9 Sudoeste 0 -- -- 95
2019-04-16 07:00:00 3.6 4 Sur 14 Oeste 0 -- -- 95
2019-04-16 06:00:00 3.5 4 Noroeste 6 Sudoeste 0 -- -- 94
2019-04-16 05:00:00 4.5 3 Oeste 9 Nordeste 0 -- -- 92
2019-04-16 04:00:00 5.7 0 Calma 4 Oeste 0 -- -- 87
2019-04-16 03:00:00 6.6 6 Noroeste 16 Oeste 0 -- -- 84
2019-04-16 02:00:00 7.7 15 Oeste 25 Oeste 0 -- -- 79
2019-04-16 01:00:00 8.9 18 Oeste 23 Oeste 0 -- -- 72
2019-04-16 00:00:00 9.7 5 Oeste 28 Oeste 0 -- -- 66
2019-04-15 23:00:00 10.4 17 Oeste 40 Oeste 0 -- -- 62
2019-04-15 22:00:00 11 26 Oeste 45 Oeste 0 -- -- 62
2019-04-15 21:00:00 11.6 24 Oeste 46 Noroeste 0 -- -- 69
2019-04-15 20:00:00 13.4 31 Noroeste 46 Noroeste 0.4 -- -- 67
2019-04-15 19:00:00 13.1 22 Oeste 61 Oeste 5.8 -- -- 77
2019-04-15 18:00:00 19.1 23 Sudoeste 47 Sur 0 -- -- 46
2019-04-15 17:00:00 19.9 26 Sur 42 Sur 0 -- -- 45
2019-04-15 16:00:00 21.2 24 Sur 46 Sudoeste 0 -- -- 43
2019-04-15 15:00:00 21.5 30 Sudoeste 44 Sudoeste 0 -- -- 44
2019-04-15 14:00:00 21 19 Sur 33 Sudoeste 0 -- -- 45
2019-04-15 13:00:00 19.3 14 Oeste 25 Sur 0 -- -- 50
2019-04-15 12:00:00 19.4 15 Sudeste 25 Sur 0 -- -- 49
2019-04-15 11:00:00 16.3 11 Este 19 Este 0 -- -- 65
2019-04-15 10:00:00 13.1 9 Este 13 Este 0 -- -- 73
2019-04-15 09:00:00 10.3 6 Este 12 Este 0 -- -- 83
2019-04-15 08:00:00 8.5 5 Este 12 Este 0 -- -- 90
2019-04-15 07:00:00 7 5 Este 9 Este 0 -- -- 94
2019-04-15 06:00:00 5.5 2 Este 9 Este 0 -- -- 93
2019-04-15 05:00:00 5.7 3 Nordeste 8 Este 0 -- -- 93
2019-04-15 04:00:00 5.7 6 Nordeste 9 Nordeste 0 -- -- 93
2019-04-15 03:00:00 5.7 3 Nordeste 8 Este 0 -- -- 92
2019-04-15 02:00:00 6.4 0 Calma 8 Este 0 -- -- 90
2019-04-15 01:00:00 7.7 3 Este 8 Nordeste 0 -- -- 86
2019-04-15 00:00:00 8.9 3 Este 5 Este 0 -- -- 82
2019-04-14 23:00:00 10.7 3 Este 4 Este 0 -- -- 76
2019-04-14 22:00:00 12.3 5 Sudeste 8 Oeste 0 -- -- 69
2019-04-14 21:00:00 14.3 8 Noroeste 13 Oeste 0 -- -- 62
2019-04-14 20:00:00 17.4 10 Oeste 19 Noroeste 0 -- -- 51
2019-04-14 19:00:00 18.5 13 Noroeste 23 Noroeste 0 -- -- 48
2019-04-14 18:00:00 18.5 14 Oeste 28 Oeste 0 -- -- 48
2019-04-14 17:00:00 18 13 Noroeste 30 Noroeste 0 -- -- 50
2019-04-14 16:00:00 17.7 14 Oeste 30 Sudoeste 0 -- -- 53
2019-04-14 15:00:00 15.8 22 Oeste 30 Oeste 0 -- -- 59
2019-04-14 14:00:00 15.7 18 Oeste 28 Oeste 0 -- -- 62
2019-04-14 13:00:00 14.4 15 Noroeste 25 Oeste 0 -- -- 68
2019-04-14 12:00:00 13.4 15 Noroeste 27 Oeste 0 -- -- 73
2019-04-14 11:00:00 12.3 15 Oeste 22 Oeste 0 -- -- 75
2019-04-14 10:00:00 11.2 12 Oeste 17 Oeste 0 -- -- 75
2019-04-14 09:00:00 7.2 0 Calma 3 Sudeste 0 -- -- 75
2019-04-14 08:00:00 4.8 0 Calma 4 Sudeste 0 -- -- 79
2019-04-14 07:00:00 3.6 0 Calma 3 Sudeste 0 -- -- 82
2019-04-14 06:00:00 2.9 0 Calma 3 Sudeste 0 -- -- 83
2019-04-14 05:00:00 2.4 0 Calma 2 Este 0 -- -- 82
2019-04-14 04:00:00 2.6 2 Sudeste 4 Sudoeste 0 -- -- 79
2019-04-14 03:00:00 2.6 0 Calma 4 Sudeste 0 -- -- 77
2019-04-14 02:00:00 3.3 3 Sudeste 3 Este 0 -- -- 74
2019-04-14 01:00:00 4.6 0 Calma 3 Sudeste 0 -- -- 67
2019-04-14 00:00:00 6.3 0 Calma 4 Sudeste 0 -- -- 60
2019-04-13 23:00:00 8 2 Sudeste 12 Noroeste 0 -- -- 49
2019-04-13 22:00:00 11.6 11 Noroeste 14 Noroeste 0 -- -- 37
2019-04-13 21:00:00 12.3 10 Noroeste 20 Oeste 0 -- -- 33
2019-04-13 20:00:00 17 15 Noroeste 29 Noroeste 0 -- -- 22
2019-04-13 19:00:00 18.1 18 Oeste 30 Noroeste 0 -- -- 20
2019-04-13 18:00:00 18.5 15 Oeste 34 Oeste 0 -- -- 15
2019-04-13 17:00:00 18.4 11 Oeste 27 Oeste 0 -- -- 15
2019-04-13 16:00:00 18.4 8 Norte 22 Oeste 0 -- -- 17
2019-04-13 15:00:00 17.1 11 Oeste 25 Oeste 0 -- -- 13
2019-04-13 14:00:00 15.7 12 Noroeste 24 Oeste 0 -- -- 17
2019-04-13 13:00:00 14.5 14 Oeste 24 Oeste 0 -- -- 23
2019-04-13 12:00:00 11.8 13 Oeste 25 Oeste 0 -- -- 32
2019-04-13 11:00:00 8.8 18 Oeste 26 Oeste 0 -- -- 39
2019-04-13 10:00:00 2.7 2 Este 5 Este 0 -- -- 76
2019-04-13 09:00:00 -2.4 2 Este 3 Sudeste 0 -- -- 91
2019-04-13 08:00:00 -5.1 0 Calma 2 Sudeste 0 -- -- 93
2019-04-13 07:00:00 -4.9 0 Calma 5 Este 0 -- -- 92
2019-04-13 06:00:00 -4.4 0 Calma 2 Este 0 -- -- 92
2019-04-13 05:00:00 -3.9 0 Calma 4 Este 0 -- -- 91
2019-04-13 04:00:00 -2.9 2 Sudeste 4 Sudeste 0 -- -- 90
2019-04-13 03:00:00 -2.3 0 Calma 4 Sudeste 0 -- -- 88
2019-04-13 02:00:00 -1.7 0 Calma 4 Este 0 -- -- 85
2019-04-13 01:00:00 0.2 0 Calma 7 Noroeste 0 -- -- 81
2019-04-13 00:00:00 3.6 6 Oeste 12 Oeste 0 -- -- 67
2019-04-12 23:00:00 6.2 11 Oeste 14 Oeste 0 -- -- 57
2019-04-12 22:00:00 8.6 8 Norte 23 Noroeste 0 -- -- 46
2019-04-12 21:00:00 10.8 18 Oeste 35 Oeste 0 -- -- 39
2019-04-12 20:00:00 13.8 27 Oeste 40 Oeste 0 -- -- 33
2019-04-12 19:00:00 14.7 30 Oeste 43 Oeste 0 -- -- 36
2019-04-12 18:00:00 15.2 26 Oeste 42 Oeste 0 -- -- 36
2019-04-12 17:00:00 15 25 Oeste 37 Oeste 0 -- -- 36
2019-04-12 16:00:00 14.4 17 Oeste 45 Oeste 0 -- -- 36
2019-04-12 15:00:00 12.7 24 Oeste 41 Oeste 0 -- -- 44
2019-04-12 14:00:00 11.8 17 Oeste 29 Oeste 0 -- -- 44
2019-04-12 13:00:00 10.7 15 Oeste 35 Oeste 0 -- -- 48
2019-04-12 12:00:00 8.8 17 Oeste 30 Oeste 0 -- -- 58
2019-04-12 11:00:00 6.8 13 Oeste 18 Oeste 0 -- -- 71
2019-04-12 10:00:00 3.6 7 Sudoeste 12 Sudoeste 0 -- -- 92
2019-04-12 09:00:00 -0.6 0 Calma 2 Este 0 -- -- 94
2019-04-12 08:00:00 -3 0 Calma 3 Este 0 -- -- 96
2019-04-12 07:00:00 -2.8 0 Calma 5 Este 0 -- -- 95
2019-04-12 06:00:00 -2.1 2 Sur 6 Sudeste 0 -- -- 95
2019-04-12 05:00:00 -0.3 2 Sudoeste 10 Oeste 0 -- -- 96
2019-04-12 04:00:00 -0.5 4 Sudoeste 10 Sudoeste 0 -- -- 92
2019-04-12 03:00:00 0.8 3 Sudoeste 9 Oeste 0 -- -- 91
2019-04-12 02:00:00 1.4 3 Oeste 8 Este 0 -- -- 89
2019-04-12 01:00:00 2.7 3 Sur 9 Noroeste 0 -- -- 87
2019-04-12 00:00:00 3.8 5 Norte 16 Norte 0 -- -- 80
2019-04-11 23:00:00 4.7 4 Norte 23 Noroeste 0 -- -- 77
2019-04-11 22:00:00 5.7 8 Noroeste 16 Norte 0 -- -- 73
2019-04-11 21:00:00 7.7 12 Norte 31 Norte 0 -- -- 62
2019-04-11 20:00:00 10.5 15 Noroeste 28 Norte 0 -- -- 50
2019-04-11 19:00:00 11.5 15 Norte 33 Noroeste 0 -- -- 46
2019-04-11 18:00:00 10.3 21 Noroeste 35 Noroeste 0 -- -- 51
2019-04-11 17:00:00 10.8 22 Noroeste 35 Noroeste 0 -- -- 50
2019-04-11 16:00:00 10.1 24 Noroeste 42 Noroeste 0 -- -- 54
2019-04-11 15:00:00 10.2 25 Noroeste 46 Noroeste 0 -- -- 55
2019-04-11 14:00:00 9.5 28 Noroeste 41 Noroeste 0 -- -- 56
2019-04-11 13:00:00 9.4 21 Noroeste 32 Noroeste 0 -- -- 56
2019-04-11 12:00:00 9.3 16 Noroeste 31 Noroeste 0 -- -- 51
2019-04-11 11:00:00 7.5 16 Noroeste 25 Noroeste 0 -- -- 64
2019-04-11 10:00:00 5.7 13 Noroeste 21 Noroeste 0 -- -- 72
2019-04-11 09:00:00 2.2 11 Noroeste 18 Oeste 0 -- -- 95
2019-04-11 08:00:00 -0.1 12 Oeste 17 Oeste 0 -- -- 96
2019-04-11 07:00:00 -0.6 3 Sudoeste 11 Oeste 0 -- -- 95
2019-04-11 06:00:00 0.1 7 Oeste 12 Oeste 0 -- -- 94
2019-04-11 05:00:00 0.5 5 Oeste 10 Oeste 0 -- -- 93
2019-04-11 04:00:00 0.6 8 Oeste 12 Oeste 0 -- -- 93
2019-04-11 03:00:00 -0.2 3 Sur 7 Sudoeste 0 -- -- 91
2019-04-11 02:00:00 1.6 3 Sudoeste 6 Oeste 0 -- -- 88
2019-04-11 01:00:00 1.9 0 Calma 14 Noroeste 0 -- -- 86
2019-04-11 00:00:00 3.3 10 Noroeste 13 Noroeste 0 -- -- 82
2019-04-10 23:00:00 4 6 Noroeste 13 Nordeste 0 -- -- 78
2019-04-10 22:00:00 5.8 10 Norte 19 Nordeste 0 -- -- 68
2019-04-10 21:00:00 6.7 9 Norte 26 Nordeste 0 -- -- 68
2019-04-10 20:00:00 9.6 15 Norte 26 Nordeste 0 -- -- 54
2019-04-10 19:00:00 11.3 18 Noroeste 33 Noroeste 0 -- -- 49
2019-04-10 18:00:00 8.9 12 Norte 36 Norte 0 -- -- 62
2019-04-10 17:00:00 9.6 18 Noroeste 32 Noroeste 0 -- -- 60
2019-04-10 16:00:00 8.9 20 Noroeste 35 Oeste 0 -- -- 61
2019-04-10 15:00:00 8.3 23 Oeste 35 Oeste 0 -- -- 66
2019-04-10 14:00:00 8.2 20 Oeste 34 Oeste 0 -- -- 65
2019-04-10 13:00:00 8.5 10 Noroeste 25 Oeste 0 -- -- 66
2019-04-10 12:00:00 5.7 21 Noroeste 31 Noroeste 0 -- -- 78
2019-04-10 11:00:00 5.1 15 Noroeste 34 Oeste 0 -- -- 86
2019-04-10 10:00:00 4.1 22 Oeste 40 Oeste 0 -- -- 89
2019-04-10 09:00:00 3.8 19 Oeste 28 Oeste 0.2 -- -- 92
2019-04-10 08:00:00 3.6 19 Oeste 27 Oeste 0 -- -- 91
2019-04-10 07:00:00 3.8 18 Noroeste 35 Oeste 0 -- -- 91
2019-04-10 06:00:00 3.9 22 Oeste 28 Oeste 0.6 -- -- 90
2019-04-10 05:00:00 4.4 18 Oeste 30 Oeste 0.2 -- -- 89
2019-04-10 04:00:00 4.8 19 Oeste 30 Oeste 0 -- -- 88
2019-04-10 03:00:00 5 17 Oeste 29 Oeste 0 -- -- 88
2019-04-10 02:00:00 4.8 12 Oeste 15 Oeste 0 -- -- 87
2019-04-10 01:00:00 5.1 9 Oeste 13 Oeste 0.2 -- -- 86
2019-04-10 00:00:00 4.8 3 Norte 13 Noroeste 0.2 -- -- 85
2019-04-09 23:00:00 5.4 10 Noroeste 18 Oeste 0 -- -- 84
2019-04-09 22:00:00 5.4 11 Oeste 23 Oeste 0 -- -- 81
2019-04-09 21:00:00 6.4 21 Noroeste 35 Oeste 0 -- -- 74
2019-04-09 20:00:00 8.1 26 Oeste 42 Oeste 0 -- -- 66
2019-04-09 19:00:00 8.7 27 Oeste 40 Oeste 0.2 -- -- 67
2019-04-09 18:00:00 5.6 29 Oeste 46 Noroeste 0.2 -- -- 84
2019-04-09 17:00:00 5 24 Oeste 54 Oeste 1 -- -- 90
2019-04-09 16:00:00 5.4 22 Oeste 41 Oeste 2.8 -- -- 92
2019-04-09 15:00:00 4.9 27 Oeste 42 Oeste 1.8 -- -- 91
2019-04-09 14:00:00 5.7 26 Oeste 40 Oeste 0.4 -- -- 81
2019-04-09 13:00:00 8 20 Oeste 35 Sudoeste 0 -- -- 71
2019-04-09 12:00:00 6.2 18 Oeste 36 Oeste 0 -- -- 78
2019-04-09 11:00:00 5.9 25 Oeste 32 Oeste 0 -- -- 78
2019-04-09 10:00:00 6.5 13 Oeste 21 Sudoeste 0 -- -- 76
2019-04-09 09:00:00 5 6 Oeste 15 Oeste 0 -- -- 86
2019-04-09 08:00:00 4.2 11 Oeste 17 Oeste 0 -- -- 88
2019-04-09 07:00:00 3.9 11 Oeste 22 Oeste 0 -- -- 89
2019-04-09 06:00:00 2.9 6 Oeste 12 Oeste 0 -- -- 94
2019-04-09 05:00:00 2.2 2 Sudoeste 11 Sudoeste 0 -- -- 92
2019-04-09 04:00:00 3.2 5 Oeste 22 Oeste 0 -- -- 90
2019-04-09 03:00:00 4.1 17 Oeste 24 Oeste 0 -- -- 88
2019-04-09 02:00:00 4.2 12 Oeste 17 Oeste 0 -- -- 87
2019-04-09 01:00:00 5.2 12 Oeste 28 Oeste 0 -- -- 82
2019-04-09 00:00:00 6.3 19 Oeste 28 Oeste 0 -- -- 76
2019-04-08 23:00:00 6.5 4 Oeste 15 Oeste 0 -- -- 74
2019-04-08 22:00:00 6.3 8 Oeste 12 Oeste 0 -- -- 73
2019-04-08 21:00:00 7.9 9 Oeste 20 Oeste 0 -- -- 67
2019-04-08 20:00:00 10.9 15 Oeste 25 Noroeste 0 -- -- 55
2019-04-08 19:00:00 10.4 23 Oeste 50 Oeste 0 -- -- 56
2019-04-08 18:00:00 13.1 22 Oeste 39 Oeste 0 -- -- 45
2019-04-08 17:00:00 12.3 22 Oeste 37 Oeste 0 -- -- 48
2019-04-08 16:00:00 11.7 27 Oeste 39 Oeste 0 -- -- 54
2019-04-08 15:00:00 11 22 Oeste 49 Oeste 0 -- -- 63
2019-04-08 14:00:00 10.2 27 Oeste 50 Oeste 0 -- -- 68
2019-04-08 13:00:00 10.4 24 Oeste 35 Oeste 0.2 -- -- 68
2019-04-08 12:00:00 8.8 14 Oeste 29 Oeste 0 -- -- 82
2019-04-08 11:00:00 7.8 19 Oeste 31 Oeste 0 -- -- 91
2019-04-08 10:00:00 7.6 17 Oeste 26 Oeste 0.2 -- -- 97
2019-04-08 09:00:00 5.9 4 Sudoeste 9 Sudoeste 0.2 -- -- 97
2019-04-08 08:00:00 4.9 0 Calma 2 Nordeste 1.2 -- -- 97
2019-04-08 07:00:00 4.7 0 Calma 2 Este 0.8 -- -- 96
2019-04-08 06:00:00 4.6 2 Este 5 Nordeste 0 -- -- 96
2019-04-08 05:00:00 4.5 3 Nordeste 4 Nordeste 0 -- -- 96
2019-04-08 04:00:00 4.5 3 Nordeste 5 Nordeste 0.2 -- -- 95
2019-04-08 03:00:00 4.3 3 Este 8 Este 0.6 -- -- 95
2019-04-08 02:00:00 4.2 7 Este 10 Este 1.2 -- -- 94
2019-04-08 01:00:00 4.4 6 Este 13 Sudeste 0.8 -- -- 91
2019-04-08 00:00:00 4.5 3 Este 5 Este 0.8 -- -- 91
2019-04-07 23:00:00 4.7 4 Oeste 14 Oeste 0.2 -- -- 87
2019-04-07 22:00:00 5.2 13 Oeste 28 Oeste 0 -- -- 81
2019-04-07 21:00:00 5.9 23 Oeste 43 Oeste 0 -- -- 78
2019-04-07 20:00:00 8.7 15 Sudoeste 30 Oeste 0 -- -- 52
2019-04-07 19:00:00 9.3 21 Sudoeste 33 Oeste 0 -- -- 48
2019-04-07 18:00:00 9.9 20 Oeste 32 Oeste 0 -- -- 47
2019-04-07 17:00:00 10.4 16 Oeste 28 Oeste 0 -- -- 44
2019-04-07 16:00:00 9 8 Noroeste 20 Oeste 0 -- -- 54
2019-04-07 15:00:00 8.3 12 Oeste 31 Oeste 0 -- -- 57
2019-04-07 14:00:00 6.2 17 Oeste 31 Noroeste 0 -- -- 66
2019-04-07 13:00:00 5.3 21 Oeste 34 Oeste 0 -- -- 68
2019-04-07 12:00:00 4.3 21 Oeste 36 Oeste 0 -- -- 72
2019-04-07 11:00:00 3.8 21 Noroeste 36 Oeste 0 -- -- 78
2019-04-07 10:00:00 2.7 29 Oeste 37 Oeste 0 -- -- 82
2019-04-07 09:00:00 2.2 23 Oeste 32 Oeste 0 -- -- 84
2019-04-07 08:00:00 2.2 23 Oeste 33 Oeste 0 -- -- 86
2019-04-07 07:00:00 2.1 15 Noroeste 29 Oeste 0 -- -- 88
2019-04-07 06:00:00 2.6 21 Oeste 31 Oeste 0 -- -- 86
2019-04-07 05:00:00 2.7 21 Oeste 35 Oeste 0 -- -- 86
2019-04-07 04:00:00 2.7 21 Oeste 44 Oeste 0 -- -- 85
2019-04-07 03:00:00 2.7 27 Oeste 45 Oeste 0 -- -- 85
2019-04-07 02:00:00 3 31 Oeste 46 Oeste 0 -- -- 83
2019-04-07 01:00:00 3.2 24 Oeste 41 Oeste 0 -- -- 81
2019-04-07 00:00:00 3.4 21 Oeste 44 Oeste 0.2 -- -- 81
2019-04-06 23:00:00 2.4 24 Oeste 51 Oeste 1.8 -- -- 90
2019-04-06 22:00:00 2 19 Noroeste 36 Noroeste 0.6 -- -- 90
2019-04-06 21:00:00 2.5 28 Noroeste 46 Noroeste 0.2 -- -- 82
2019-04-06 20:00:00 5.1 27 Oeste 54 Oeste 0.2 -- -- 73
2019-04-06 19:00:00 5.6 37 Oeste 54 Oeste 0 -- -- 74
2019-04-06 18:00:00 4 36 Oeste 63 Oeste 0.2 -- -- 84
2019-04-06 17:00:00 4.2 39 Oeste 70 Oeste 0.6 -- -- 77
2019-04-06 16:00:00 6.2 30 Oeste 57 Oeste 0.8 -- -- 73
2019-04-06 15:00:00 3.4 37 Oeste 68 Sudoeste 1 -- -- 88
2019-04-06 14:00:00 5.3 36 Oeste 57 Oeste 0.2 -- -- 70
2019-04-06 13:00:00 3.4 29 Sudoeste 44 Sudoeste 0.4 -- -- 91
2019-04-06 12:00:00 4.5 26 Oeste 39 Oeste 0.4 -- -- 86
2019-04-06 11:00:00 3.7 23 Oeste 34 Sudoeste 0 -- -- 84
2019-04-06 10:00:00 2.3 14 Sudoeste 28 Sudoeste 0 -- -- 89
2019-04-06 09:00:00 2 16 Sudoeste 23 Sudoeste 0 -- -- 89
2019-04-06 08:00:00 1.7 12 Oeste 22 Oeste 0 -- -- 93
2019-04-06 07:00:00 1.2 16 Oeste 27 Oeste 0.2 -- -- 93
2019-04-06 06:00:00 1.5 20 Oeste 31 Oeste 0.2 -- -- 94
2019-04-06 05:00:00 1.6 17 Oeste 34 Oeste 0.2 -- -- 93
2019-04-06 04:00:00 1.9 14 Oeste 21 Oeste 0 -- -- 91
2019-04-06 03:00:00 2 10 Oeste 25 Oeste 0 -- -- 91
2019-04-06 02:00:00 2 20 Oeste 28 Oeste 0 -- -- 92
2019-04-06 01:00:00 1.6 15 Oeste 23 Oeste 0 -- -- 92
2019-04-06 00:00:00 1.2 14 Oeste 21 Oeste 0 -- -- 94
2019-04-05 23:00:00 0.6 10 Oeste 19 Oeste 0 -- -- 95
2019-04-05 22:00:00 0.3 7 Oeste 15 Oeste 0 -- -- 95
2019-04-05 21:00:00 1.2 11 Oeste 33 Noroeste 0 -- -- 94
2019-04-05 20:00:00 2.1 19 Oeste 39 Noroeste 0.4 -- -- 89
2019-04-05 19:00:00 3.5 8 Oeste 13 Oeste 0 -- -- 94
2019-04-05 18:00:00 2 5 Noroeste 9 Oeste 0.2 -- -- 95
2019-04-05 17:00:00 1.7 3 Oeste 17 Oeste 2 -- -- 94
2019-04-05 16:00:00 0.5 14 Oeste 50 Oeste 1.2 -- -- 96
2019-04-05 15:00:00 5.3 12 Noroeste 17 Noroeste 0 -- -- 82
2019-04-05 14:00:00 6 12 Noroeste 20 Noroeste 0 -- -- 78
2019-04-05 13:00:00 5 15 Noroeste 27 Noroeste 0 -- -- 82
2019-04-05 12:00:00 7.9 14 Sur 23 Sur 0 -- -- 66
2019-04-05 11:00:00 6 8 Sur 16 Sur 0 -- -- 73
2019-04-05 10:00:00 5.1 6 Sur 15 Sur 0 -- -- 78
2019-04-05 09:00:00 4.4 6 Sudeste 14 Sudoeste 0 -- -- 82
2019-04-05 08:00:00 3.4 4 Sudoeste 12 Sudoeste 0.4 -- -- 88
2019-04-05 07:00:00 2.9 3 Nordeste 8 Nordeste 0.4 -- -- 86
2019-04-05 06:00:00 3.3 3 Nordeste 6 Nordeste 0 -- -- 78
2019-04-05 05:00:00 3.6 0 Calma 2 Norte 0 -- -- 72
2019-04-05 04:00:00 3.8 2 Noroeste 4 Noroeste 0 -- -- 69
2019-04-05 03:00:00 4 3 Noroeste 5 Norte 0 -- -- 64
2019-04-05 02:00:00 4.5 5 Noroeste 10 Oeste 0 -- -- 60
2019-04-05 01:00:00 5.4 4 Noroeste 13 Noroeste 0 -- -- 54
2019-04-05 00:00:00 6 3 Noroeste 10 Sudoeste 0 -- -- 50
2019-04-04 23:00:00 6.8 0 Calma 10 Oeste 0 -- -- 45
2019-04-04 22:00:00 7.5 8 Noroeste 21 Noroeste 0 -- -- 39
2019-04-04 21:00:00 8.3 11 Noroeste 23 Oeste 0 -- -- 31
2019-04-04 20:00:00 9.4 17 Oeste 30 Oeste 0 -- -- 27
2019-04-04 19:00:00 9.8 26 Oeste 35 Oeste 0 -- -- 26
2019-04-04 18:00:00 10.4 21 Oeste 37 Oeste 0 -- -- 30
2019-04-04 17:00:00 11.4 17 Oeste 39 Oeste 0 -- -- 28
2019-04-04 16:00:00 10.2 26 Sudoeste 40 Oeste 0 -- -- 29
2019-04-04 15:00:00 8.1 16 Oeste 37 Sudoeste 0 -- -- 36
2019-04-04 14:00:00 7.1 17 Oeste 35 Oeste 0 -- -- 40
2019-04-04 13:00:00 5.9 19 Oeste 31 Oeste 0 -- -- 49
2019-04-04 12:00:00 4.6 18 Oeste 32 Oeste 0 -- -- 59
2019-04-04 11:00:00 2.5 18 Oeste 31 Oeste 0 -- -- 65
2019-04-04 10:00:00 0.5 12 Sudoeste 21 Sudoeste 0 -- -- 75
2019-04-04 09:00:00 -2.4 5 Sudoeste 9 Oeste 0 -- -- 83
2019-04-04 08:00:00 -4.5 3 Sudoeste 5 Sudoeste 0 -- -- 88
2019-04-04 07:00:00 -4.2 3 Sudoeste 18 Oeste 0 -- -- 85
2019-04-04 06:00:00 -3.3 14 Oeste 24 Oeste 0 -- -- 83
2019-04-04 05:00:00 -2.6 17 Oeste 22 Oeste 0 -- -- 83
2019-04-04 04:00:00 -2.2 15 Oeste 19 Oeste 0 -- -- 83
2019-04-04 03:00:00 -1.9 13 Oeste 18 Oeste 0 -- -- 80
2019-04-04 02:00:00 -1.4 13 Oeste 20 Noroeste 0 -- -- 78
2019-04-04 01:00:00 -1.1 14 Oeste 17 Oeste 0 -- -- 81
2019-04-04 00:00:00 -0.9 8 Oeste 15 Oeste 0 -- -- 81
2019-04-03 23:00:00 0.8 5 Noroeste 14 Norte 0 -- -- 74
2019-04-03 22:00:00 2.6 11 Norte 22 Norte 0 -- -- 67
2019-04-03 21:00:00 3.7 8 Oeste 44 Oeste 0 -- -- 60
2019-04-03 20:00:00 4.8 11 Noroeste 33 Norte 0 -- -- 63
2019-04-03 19:00:00 5.3 19 Norte 52 Noroeste 0 -- -- 66
2019-04-03 18:00:00 8 29 Noroeste 49 Noroeste 0 -- -- 39
2019-04-03 17:00:00 8.4 35 Oeste 49 Oeste 0 -- -- 34
2019-04-03 16:00:00 9.1 31 Oeste 46 Oeste 0 -- -- 39
2019-04-03 15:00:00 8.4 22 Noroeste 44 Oeste 0 -- -- 46
2019-04-03 14:00:00 7.4 26 Oeste 41 Oeste 0 -- -- 54
2019-04-03 13:00:00 6.4 19 Oeste 31 Oeste 0 -- -- 71
2019-04-03 12:00:00 5.1 19 Oeste 29 Oeste 0 -- -- 80
2019-04-03 11:00:00 5.3 18 Oeste 24 Noroeste 0 -- -- 79
2019-04-03 10:00:00 4.6 14 Oeste 23 Oeste 0 -- -- 86
2019-04-03 09:00:00 3.7 10 Oeste 20 Noroeste 0 -- -- 91
2019-04-03 08:00:00 3.9 14 Noroeste 23 Noroeste 0 -- -- 90
2019-04-03 07:00:00 4.5 6 Noroeste 13 Oeste 0 -- -- 90
2019-04-03 06:00:00 4.3 8 Oeste 17 Oeste 0 -- -- 87
2019-04-03 05:00:00 4.8 12 Oeste 20 Oeste 0 -- -- 79
2019-04-03 04:00:00 4.2 13 Oeste 20 Oeste 0 -- -- 82
2019-04-03 03:00:00 4.9 15 Oeste 19 Oeste 0 -- -- 76
2019-04-03 02:00:00 4.9 5 Oeste 7 Oeste 0 -- -- 90
2019-04-03 01:00:00 5.5 3 Este 5 Este 0 -- -- 90
2019-04-03 00:00:00 5.3 2 Nordeste 10 Este 0 -- -- 89
2019-04-02 23:00:00 6.8 4 Este 15 Este 0 -- -- 85
2019-04-02 22:00:00 8.8 12 Este 18 Este 0 -- -- 78
2019-04-02 21:00:00 10 3 Oeste 10 Sur 0 -- -- 70
2019-04-02 20:00:00 12.5 6 Sur 15 Sur 0 -- -- 58
2019-04-02 19:00:00 12.3 13 Sudoeste 50 Oeste 0.2 -- -- 62
2019-04-02 18:00:00 11.3 23 Oeste 34 Oeste 2.2 -- -- 63
2019-04-02 17:00:00 14.3 8 Sur 18 Sudoeste 0 -- -- 50
2019-04-02 16:00:00 13.4 10 Sudoeste 29 Sudoeste 0 -- -- 51
2019-04-02 15:00:00 11.1 16 Sudoeste 46 Oeste 0 -- -- 63
2019-04-02 14:00:00 13.8 15 Oeste 26 Noroeste 0 -- -- 47
2019-04-02 13:00:00 13.8 13 Oeste 22 Oeste 0 -- -- 49
2019-04-02 12:00:00 12.9 13 Sudoeste 19 Sudoeste 0 -- -- 57
2019-04-02 11:00:00 10.7 3 Este 8 Este 0 -- -- 82
2019-04-02 10:00:00 4.9 3 Este 5 Sudeste 0 -- -- 95
2019-04-02 09:00:00 2 0 Calma 4 Nordeste 0 -- -- 98
2019-04-02 08:00:00 0.6 0 Calma 4 Nordeste 0 -- -- 97
2019-04-02 07:00:00 1.4 0 Calma 4 Este 0 -- -- 97
2019-04-02 06:00:00 2.2 2 Sudeste 3 Sudeste 0 -- -- 96
2019-04-02 05:00:00 3.5 0 Calma 3 Nordeste 0 -- -- 95
2019-04-02 04:00:00 3.6 0 Calma 5 Nordeste 0 -- -- 95
2019-04-02 03:00:00 5.1 3 Este 5 Nordeste 0 -- -- 95
2019-04-02 02:00:00 5.5 2 Este 10 Nordeste 0 -- -- 94
2019-04-02 01:00:00 6.6 3 Este 12 Nordeste 0 -- -- 92
2019-04-02 00:00:00 7.3 8 Nordeste 18 Este 0 -- -- 90
2019-04-01 23:00:00 8.1 9 Este 18 Este 0 -- -- 89
2019-04-01 22:00:00 8.2 6 Este 10 Este 0 -- -- 81
2019-04-01 21:00:00 9.2 0 Calma 12 Este 0 -- -- 71
2019-04-01 20:00:00 12.9 11 Este 18 Este 0 -- -- 57
2019-04-01 19:00:00 14.7 9 Este 18 Este 0 -- -- 55
2019-04-01 18:00:00 13.4 11 Este 22 Sudeste 0 -- -- 60
2019-04-01 17:00:00 14.2 4 Noroeste 17 Noroeste 0 -- -- 52
2019-04-01 16:00:00 15.3 3 Sudeste 17 Este 0 -- -- 56
2019-04-01 15:00:00 13.9 9 Este 15 Este 0 -- -- 57
2019-04-01 14:00:00 12.7 5 Este 10 Sudeste 0 -- -- 64
2019-04-01 13:00:00 12.1 3 Sudeste 12 Este 0 -- -- 64
2019-04-01 12:00:00 10.4 5 Nordeste 21 Este 0 -- -- 72
2019-04-01 11:00:00 9.5 13 Este 19 Este 0 -- -- 78
2019-04-01 10:00:00 7.5 13 Este 21 Este 0 -- -- 87
2019-04-01 09:00:00 5.9 11 Este 16 Este 0 -- -- 91
2019-04-01 08:00:00 5.5 11 Este 20 Este 0 -- -- 92
2019-04-01 07:00:00 5.4 10 Este 19 Este 0 -- -- 92
2019-04-01 06:00:00 5.4 14 Este 22 Este 0 -- -- 91
2019-04-01 05:00:00 5.3 10 Este 16 Este 0 -- -- 91
2019-04-01 04:00:00 5.1 10 Este 14 Este 0 -- -- 90
2019-04-01 03:00:00 5 6 Este 12 Este 0 -- -- 89
2019-04-01 02:00:00 5 9 Este 16 Este 0 -- -- 89
2019-04-01 01:00:00 5 6 Este 22 Este 0 -- -- 88
2019-04-01 00:00:00 5.1 15 Este 27 Este 0 -- -- 89
2019-03-31 23:00:00 6.1 14 Este 23 Este 0 -- -- 89
2019-03-31 22:00:00 6.3 15 Este 23 Este 0 -- -- 88
2019-03-31 21:00:00 6.6 10 Este 20 Este 0.6 -- -- 90
2019-03-31 20:00:00 7 16 Este 27 Este 0.4 -- -- 84
2019-03-31 19:00:00 8 22 Este 35 Este 0 -- -- 75
2019-03-31 18:00:00 9.1 26 Este 34 Este 0 -- -- 68
2019-03-31 17:00:00 10.2 28 Este 43 Este 0 -- -- 60
2019-03-31 16:00:00 12.5 26 Este 37 Este 0 -- -- 48
2019-03-31 15:00:00 12.7 21 Este 35 Sudeste 0 -- -- 43
2019-03-31 14:00:00 14 28 Este 44 Este 0 -- -- 31
2019-03-31 13:00:00 13.9 25 Sudeste 38 Este 0 -- -- 36
2019-03-31 12:00:00 12.3 21 Este 32 Este 0 -- -- 46
2019-03-31 11:00:00 9.6 16 Este 22 Este 0 -- -- 55
2019-03-31 10:00:00 6.1 8 Este 11 Este 0 -- -- 61
2019-03-31 09:00:00 3.7 3 Este 11 Este 0 -- -- 68
2019-03-31 08:00:00 1.8 2 Este 13 Este 0 -- -- 72
2019-03-31 07:00:00 2.3 8 Este 11 Este 0 -- -- 67
2019-03-31 06:00:00 2.2 4 Este 7 Este 0 -- -- 66
2019-03-31 05:00:00 3 6 Este 17 Este 0 -- -- 61
2019-03-31 03:00:00 4.4 5 Este 8 Este 0 -- -- 54
2019-03-31 01:00:00 5.4 4 Este 10 Este 0 -- -- 49
2019-03-31 00:00:00 6.5 3 Sudeste 5 Este 0 -- -- 45
2019-03-30 23:00:00 6.2 0 Calma 16 Este 0 -- -- 47
2019-03-30 22:00:00 7.5 10 Este 16 Este 0 -- -- 45
2019-03-30 21:00:00 8.5 10 Este 14 Este 0 -- -- 42
2019-03-30 20:00:00 10.6 6 Este 18 Este 0 -- -- 37
2019-03-30 19:00:00 15.6 14 Este 24 Este 0 -- -- 28
2019-03-30 18:00:00 16.6 12 Sudeste 33 Este 0 -- -- 25
2019-03-30 17:00:00 17.3 10 Sudeste 28 Sudeste 0 -- -- 25
2019-03-30 16:00:00 17.7 11 Este 30 Este 0 -- -- 24
2019-03-30 15:00:00 17.2 8 Sudeste 30 Sudeste 0 -- -- 26
2019-03-30 14:00:00 16.1 14 Sudeste 36 Este 0 -- -- 29
2019-03-30 13:00:00 15.2 15 Sudeste 35 Este 0 -- -- 32
2019-03-30 12:00:00 14.1 21 Este 35 Este 0 -- -- 35
2019-03-30 11:00:00 12.7 18 Este 26 Este 0 -- -- 40
2019-03-30 10:00:00 9.9 15 Este 24 Este 0 -- -- 45
2019-03-30 09:00:00 6.5 16 Este 22 Este 0 -- -- 54
2019-03-30 08:00:00 3.1 7 Este 12 Este 0 -- -- 67
2019-03-30 07:00:00 0.9 3 Este 12 Este 0 -- -- 74
2019-03-30 06:00:00 1.5 9 Este 13 Este 0 -- -- 74
2019-03-30 05:00:00 1.6 3 Este 12 Este 0 -- -- 73
2019-03-30 04:00:00 1.8 5 Este 8 Este 0 -- -- 76
2019-03-30 03:00:00 2.3 4 Nordeste 8 Este 0 -- -- 75
2019-03-30 02:00:00 3.1 4 Nordeste 7 Nordeste 0 -- -- 72
2019-03-30 01:00:00 4.6 7 Este 13 Nordeste 0 -- -- 65
2019-03-30 00:00:00 5.9 6 Nordeste 12 Nordeste 0 -- -- 59
2019-03-29 23:00:00 6.2 8 Este 16 Este 0 -- -- 54
2019-03-29 22:00:00 5.3 0 Calma 12 Este 0 -- -- 47
2019-03-29 21:00:00 9.2 3 Sudeste 9 Sudoeste 0 -- -- 36
2019-03-29 20:00:00 11.1 4 Sur 19 Sur 0 -- -- 31
2019-03-29 19:00:00 14.7 14 Sur 28 Sudeste 0 -- -- 25
2019-03-29 18:00:00 16.1 15 Sur 28 Sudeste 0 -- -- 23
2019-03-29 17:00:00 16.7 13 Sur 28 Sudeste 0 -- -- 23
2019-03-29 16:00:00 17.4 9 Sur 38 Sur 0 -- -- 23
2019-03-29 15:00:00 16 19 Sudeste 37 Sudeste 0 -- -- 25
2019-03-29 14:00:00 16.1 19 Sudeste 36 Sudeste 0 -- -- 25
2019-03-29 13:00:00 15.6 18 Sudeste 34 Sudeste 0 -- -- 27
2019-03-29 12:00:00 15.5 14 Sur 26 Sudeste 0 -- -- 29
2019-03-29 11:00:00 14.5 12 Sur 19 Este 0 -- -- 31
2019-03-29 10:00:00 10.9 14 Este 23 Este 0 -- -- 41
2019-03-29 09:00:00 7.2 13 Este 22 Este 0 -- -- 49
2019-03-29 08:00:00 4.2 8 Este 14 Este 0 -- -- 58
2019-03-29 07:00:00 2 7 Nordeste 13 Este 0 -- -- 64
2019-03-29 06:00:00 2.2 3 Este 10 Este 0 -- -- 64
2019-03-29 05:00:00 2.8 6 Este 12 Este 0 -- -- 64
2019-03-29 04:00:00 2.8 7 Este 14 Este 0 -- -- 69
2019-03-29 03:00:00 3.3 12 Este 17 Este 0 -- -- 72
2019-03-29 02:00:00 3.3 11 Este 15 Este 0 -- -- 70
2019-03-29 01:00:00 4.8 8 Nordeste 13 Nordeste 0 -- -- 63
2019-03-29 00:00:00 5.8 5 Este 13 Este 0 -- -- 58
2019-03-28 23:00:00 6.2 3 Nordeste 17 Este 0 -- -- 56
2019-03-28 22:00:00 8.8 11 Este 22 Este 0 -- -- 48
2019-03-28 21:00:00 9.5 11 Este 19 Este 0 -- -- 44
2019-03-28 20:00:00 12.3 13 Este 27 Este 0 -- -- 37
2019-03-28 19:00:00 16.1 15 Sudeste 27 Este 0 -- -- 25
2019-03-28 18:00:00 18.2 13 Este 25 Este 0 -- -- 23
2019-03-28 17:00:00 19.5 7 Este 24 Sudeste 0 -- -- 22
2019-03-28 16:00:00 19 12 Este 26 Este 0 -- -- 19
2019-03-28 15:00:00 18.9 4 Noroeste 20 Este 0 -- -- 22
2019-03-28 14:00:00 18.1 8 Este 20 Este 0 -- -- 20
2019-03-28 13:00:00 15.7 14 Este 27 Este 0 -- -- 26
2019-03-28 12:00:00 14.2 16 Este 23 Este 0 -- -- 29
2019-03-28 11:00:00 12 14 Sudeste 29 Este 0 -- -- 34
2019-03-28 10:00:00 9.4 15 Este 24 Sudeste 0 -- -- 44
2019-03-28 09:00:00 3.6 5 Este 8 Este 0 -- -- 56
2019-03-28 08:00:00 -2.1 3 Este 7 Nordeste 0 -- -- 67
2019-03-28 07:00:00 -4.2 5 Este 8 Nordeste 0 -- -- 73
2019-03-28 06:00:00 -3.7 5 Este 8 Este 0 -- -- 70
2019-03-28 05:00:00 -3.4 4 Nordeste 7 Nordeste 0 -- -- 69
2019-03-28 04:00:00 -2.6 3 Sudeste 4 Sudeste 0 -- -- 67
2019-03-28 03:00:00 -0.9 3 Este 6 Nordeste 0 -- -- 60
2019-03-28 02:00:00 1.9 0 Calma 7 Sudeste 0 -- -- 49
2019-03-28 01:00:00 3.1 0 Calma 10 Este 0 -- -- 46
2019-03-28 00:00:00 4.4 2 Sudeste 16 Este 0 -- -- 45
2019-03-27 23:00:00 6.6 3 Sudeste 16 Este 0 -- -- 39
2019-03-27 22:00:00 7 12 Este 15 Este 0 -- -- 39
2019-03-27 21:00:00 8.1 3 Nordeste 15 Este 0 -- -- 35
2019-03-27 20:00:00 11.3 13 Este 28 Este 0 -- -- 28
2019-03-27 19:00:00 14.8 22 Este 42 Este 0 -- -- 20
2019-03-27 18:00:00 16.7 32 Este 44 Este 0 -- -- 17
2019-03-27 17:00:00 18 29 Este 42 Sudeste 0 -- -- 16
2019-03-27 16:00:00 18.7 21 Este 33 Este 0 -- -- 15
2019-03-27 15:00:00 18.8 15 Sudeste 31 Este 0 -- -- 15
2019-03-27 14:00:00 17.6 19 Sudeste 28 Este 0 -- -- 14
2019-03-27 13:00:00 16.7 14 Este 25 Este 0 -- -- 15
2019-03-27 12:00:00 15.2 13 Este 25 Este 0 -- -- 19
2019-03-27 11:00:00 12.6 12 Sudeste 22 Este 0 -- -- 24
2019-03-27 10:00:00 9.5 8 Este 12 Este 0 -- -- 34
2019-03-27 09:00:00 1.2 5 Sudeste 8 Este 0 -- -- 52
2019-03-27 08:00:00 -3.2 0 Calma 9 Nordeste 0 -- -- 65
2019-03-27 07:00:00 -6.2 2 Nordeste 4 Este 0 -- -- 72
2019-03-27 06:00:00 -5.7 2 Sudeste 4 Sudeste 0 -- -- 68
2019-03-27 05:00:00 -4.9 3 Este 5 Este 0 -- -- 66
2019-03-27 04:00:00 -4.9 0 Calma 6 Sudeste 0 -- -- 64
2019-03-27 03:00:00 -4.2 2 Sudeste 6 Sudeste 0 -- -- 61
2019-03-27 02:00:00 -3.2 0 Calma 4 Norte 0 -- -- 57
2019-03-27 01:00:00 -2.9 2 Este 5 Este 0 -- -- 57
2019-03-27 00:00:00 -0.3 3 Este 8 Este 0 -- -- 45
2019-03-26 23:00:00 1.5 2 Nordeste 7 Sudeste 0 -- -- 40
2019-03-26 22:00:00 4.5 3 Este 6 Nordeste 0 -- -- 29
2019-03-26 21:00:00 6.9 3 Nordeste 19 Este 0 -- -- 25
2019-03-26 20:00:00 10.1 10 Nordeste 30 Este 0 -- -- 20
2019-03-26 19:00:00 14.4 18 Este 36 Este 0 -- -- 16
2019-03-26 18:00:00 16.7 23 Este 37 Este 0 -- -- 15
2019-03-26 17:00:00 17.2 26 Este 42 Este 0 -- -- 13
2019-03-26 16:00:00 17.3 24 Este 48 Este 0 -- -- 13
2019-03-26 15:00:00 17.3 24 Este 42 Este 0 -- -- 16
2019-03-26 14:00:00 16.5 23 Este 38 Este 0 -- -- 19
2019-03-26 13:00:00 15.4 23 Este 41 Este 0 -- -- 22
2019-03-26 12:00:00 13.7 26 Este 37 Este 0 -- -- 26
2019-03-26 11:00:00 11.7 26 Este 34 Este 0 -- -- 29
2019-03-26 10:00:00 7.6 14 Este 19 Este 0 -- -- 46
2019-03-26 09:00:00 0.9 2 Este 6 Sudeste 0 -- -- 71
2019-03-26 08:00:00 -3.8 3 Este 5 Sudeste 0 -- -- 84
2019-03-26 07:00:00 -5.4 0 Calma 4 Este 0 -- -- 85
2019-03-26 06:00:00 -4.6 2 Este 4 Nordeste 0 -- -- 84
2019-03-26 05:00:00 -4.5 0 Calma 4 Sudeste 0 -- -- 83
2019-03-26 04:00:00 -3.3 0 Calma 2 Sudeste 0 -- -- 78
2019-03-26 03:00:00 -2.9 0 Calma 7 Sur 0 -- -- 77
2019-03-26 02:00:00 -2.5 2 Sudeste 7 Este 0 -- -- 75
2019-03-26 01:00:00 -0.9 2 Noroeste 5 Sudeste 0 -- -- 70
2019-03-26 00:00:00 -0.4 0 Calma 5 Sudeste 0 -- -- 65
2019-03-25 23:00:00 1.4 2 Este 4 Sudeste 0 -- -- 61
2019-03-25 22:00:00 5.1 0 Calma 5 Sudoeste 0 -- -- 50
2019-03-25 21:00:00 6.3 0 Calma 8 Este 0 -- -- 44
2019-03-25 20:00:00 8.8 10 Nordeste 30 Nordeste 0 -- -- 39
2019-03-25 19:00:00 12.5 18 Nordeste 35 Este 0 -- -- 35
2019-03-25 18:00:00 15.9 22 Este 36 Este 0 -- -- 24
2019-03-25 17:00:00 18.2 23 Este 32 Sudeste 0 -- -- 22
2019-03-25 16:00:00 18.9 8 Sudoeste 18 Sudoeste 0 -- -- 25
2019-03-25 15:00:00 18 10 Sur 21 Sudoeste 0 -- -- 27
2019-03-25 14:00:00 17.8 6 Este 15 Sudeste 0 -- -- 26
2019-03-25 13:00:00 16 6 Noroeste 15 Oeste 0 -- -- 32
2019-03-25 12:00:00 14.9 6 Sur 14 Este 0 -- -- 36
2019-03-25 11:00:00 14 4 Nordeste 11 Nordeste 0 -- -- 39
2019-03-25 10:00:00 11 3 Este 8 Sudeste 0 -- -- 48
2019-03-25 09:00:00 3.8 3 Este 8 Este 0 -- -- 69
2019-03-25 08:00:00 -0.2 3 Este 6 Nordeste 0 -- -- 83
2019-03-25 07:00:00 -2 4 Nordeste 7 Nordeste 0 -- -- 87
2019-03-25 06:00:00 -1.4 3 Nordeste 8 Este 0 -- -- 85
2019-03-25 05:00:00 -1.2 2 Este 5 Nordeste 0 -- -- 84
2019-03-25 04:00:00 -0.6 3 Sudeste 5 Sudeste 0 -- -- 82
2019-03-25 03:00:00 1 2 Sudeste 5 Sudeste 0 -- -- 75
2019-03-25 02:00:00 2 0 Calma 6 Sudeste 0 -- -- 72
2019-03-25 01:00:00 4.5 2 Sudeste 6 Sudeste 0 -- -- 64
2019-03-25 00:00:00 6.5 2 Noroeste 10 Nordeste 0 -- -- 57